createdAt,value
2018-08-19T00:00:46.004Z,941.30
2018-08-19T00:01:46.014Z,941.31
2018-08-19T00:02:46.030Z,941.27
2018-08-19T00:03:46.141Z,941.24
2018-08-19T00:04:46.056Z,941.28
2018-08-19T00:05:46.063Z,941.32
2018-08-19T00:06:46.085Z,941.35
2018-08-19T00:07:46.096Z,941.37
2018-08-19T00:08:46.209Z,941.35
2018-08-19T00:09:46.111Z,941.36
2018-08-19T00:10:46.138Z,941.40
2018-08-19T00:11:46.140Z,941.34
2018-08-19T00:12:46.141Z,941.36
2018-08-19T00:13:46.311Z,941.33
2018-08-19T00:14:46.159Z,941.36
2018-08-19T00:15:46.193Z,941.37
2018-08-19T00:16:46.204Z,941.38
2018-08-19T00:17:46.217Z,941.39
2018-08-19T00:18:46.478Z,941.39
2018-08-19T00:19:46.240Z,941.41
2018-08-19T00:20:46.253Z,941.43
2018-08-19T00:21:46.316Z,941.36
2018-08-19T00:22:46.272Z,941.42
2018-08-19T00:23:46.291Z,941.31
2018-08-19T00:24:46.454Z,941.35
2018-08-19T00:25:46.321Z,941.36
2018-08-19T00:26:46.328Z,941.39
2018-08-19T00:27:46.340Z,941.39
2018-08-19T00:28:46.357Z,941.38
2018-08-19T00:29:46.361Z,941.43
2018-08-19T00:30:46.521Z,941.38
2018-08-19T00:31:46.386Z,941.41
2018-08-19T00:32:46.402Z,941.41
2018-08-19T00:33:46.411Z,941.40
2018-08-19T00:34:46.424Z,941.40
2018-08-19T00:35:46.437Z,941.40
2018-08-19T00:36:46.597Z,941.35
2018-08-19T00:37:46.464Z,941.40
2018-08-19T00:38:46.474Z,941.34
2018-08-19T00:39:46.464Z,941.40
2018-08-19T00:40:46.497Z,941.38
2018-08-19T00:41:46.611Z,941.37
2018-08-19T00:42:46.523Z,941.36
2018-08-19T00:43:46.520Z,941.38
2018-08-19T00:44:46.547Z,941.35
2018-08-19T00:45:46.563Z,941.39
2018-08-19T00:46:46.820Z,941.35
2018-08-19T00:47:46.584Z,941.36
2018-08-19T00:48:46.601Z,941.33
2018-08-19T00:49:46.607Z,941.31
2018-08-19T00:50:46.617Z,941.34
2018-08-19T00:51:46.787Z,941.37
2018-08-19T00:52:46.645Z,941.39
2018-08-19T00:53:46.658Z,941.38
2018-08-19T00:54:46.675Z,941.32
2018-08-19T00:55:46.684Z,941.37
2018-08-19T00:56:46.844Z,941.34
2018-08-19T00:57:46.705Z,941.28
2018-08-19T00:58:46.720Z,941.33
2018-08-19T00:59:46.714Z,941.35
2018-08-19T01:00:46.755Z,941.32
2018-08-19T01:01:46.856Z,941.34
2018-08-19T01:02:46.775Z,941.35
2018-08-19T01:03:46.786Z,941.38
2018-08-19T01:04:46.794Z,941.32
2018-08-19T01:05:46.788Z,941.35
2018-08-19T01:06:47.068Z,941.39
2018-08-19T01:07:46.829Z,941.35
2018-08-19T01:08:46.842Z,941.35
2018-08-19T01:09:46.838Z,941.30
2018-08-19T01:10:46.868Z,941.35
2018-08-19T01:11:47.036Z,941.30
2018-08-19T01:12:46.872Z,941.32
2018-08-19T01:13:46.880Z,941.32
2018-08-19T01:14:46.914Z,941.30
2018-08-19T01:15:46.928Z,941.27
2018-08-19T01:16:47.024Z,941.27
2018-08-19T01:17:46.955Z,941.27
2018-08-19T01:18:46.966Z,941.29
2018-08-19T01:19:46.975Z,941.27
2018-08-19T01:20:46.984Z,941.27
2018-08-19T01:21:47.157Z,941.28
2018-08-19T01:22:47.113Z,941.28
2018-08-19T01:23:47.007Z,941.28
2018-08-19T01:24:47.042Z,941.26
2018-08-19T01:25:47.054Z,941.25
2018-08-19T01:26:47.312Z,941.26
2018-08-19T01:27:47.077Z,941.19
2018-08-19T01:28:47.085Z,941.24
2018-08-19T01:29:47.104Z,941.24
2018-08-19T01:30:47.109Z,941.26
2018-08-19T01:31:47.276Z,941.26
2018-08-19T01:32:47.135Z,941.22
2018-08-19T01:33:47.150Z,941.27
2018-08-19T01:34:47.165Z,941.27
2018-08-19T01:35:47.174Z,941.30
2018-08-19T01:36:47.330Z,941.30
2018-08-19T01:37:47.174Z,941.29
2018-08-19T01:38:47.207Z,941.32
2018-08-19T01:39:47.224Z,941.28
2018-08-19T01:40:47.228Z,941.33
2018-08-19T01:41:47.470Z,941.35
2018-08-19T01:42:47.260Z,941.35
2018-08-19T01:43:47.268Z,941.31
2018-08-19T01:44:47.304Z,941.29
2018-08-19T01:45:47.276Z,941.27
2018-08-19T01:46:47.461Z,941.30
2018-08-19T01:47:47.319Z,941.29
2018-08-19T01:48:47.328Z,941.26
2018-08-19T01:49:47.327Z,941.25
2018-08-19T01:50:47.359Z,941.28
2018-08-19T01:51:47.360Z,941.26
2018-08-19T01:52:47.629Z,941.24
2018-08-19T01:53:47.384Z,941.24
2018-08-19T01:54:47.396Z,941.27
2018-08-19T01:55:47.412Z,941.27
2018-08-19T01:56:47.430Z,941.24
2018-08-19T01:57:47.686Z,941.27
2018-08-19T01:58:47.447Z,941.33
2018-08-19T01:59:47.464Z,941.32
2018-08-19T02:00:47.476Z,941.31
2018-08-19T02:01:47.485Z,941.29
2018-08-19T02:02:47.653Z,941.26
2018-08-19T02:03:47.512Z,941.24
2018-08-19T02:04:47.521Z,941.23
2018-08-19T02:05:47.541Z,941.22
2018-08-19T02:06:47.543Z,941.18
2018-08-19T02:07:47.657Z,941.21
2018-08-19T02:08:47.550Z,941.22
2018-08-19T02:09:47.582Z,941.21
2018-08-19T02:10:47.592Z,941.22
2018-08-19T02:11:47.615Z,941.27
2018-08-19T02:12:47.768Z,941.24
2018-08-19T02:13:47.632Z,941.20
2018-08-19T02:14:47.649Z,941.24
2018-08-19T02:15:47.641Z,941.15
2018-08-19T02:16:47.713Z,941.15
2018-08-19T02:17:47.932Z,941.17
2018-08-19T02:18:47.672Z,941.16
2018-08-19T02:19:47.688Z,941.15
2018-08-19T02:20:47.730Z,941.14
2018-08-19T02:21:47.728Z,941.12
2018-08-19T02:22:47.869Z,941.09
2018-08-19T02:23:47.752Z,941.10
2018-08-19T02:24:47.765Z,941.08
2018-08-19T02:25:47.752Z,941.08
2018-08-19T02:26:47.787Z,941.03
2018-08-19T02:27:48.055Z,941.02
2018-08-19T02:28:47.808Z,941.02
2018-08-19T02:29:47.831Z,941.07
2018-08-19T02:30:47.846Z,941.05
2018-08-19T02:31:47.849Z,941.04
2018-08-19T02:32:47.961Z,941.01
2018-08-19T02:33:47.859Z,941.04
2018-08-19T02:34:47.885Z,941.03
2018-08-19T02:35:47.895Z,941.01
2018-08-19T02:36:47.913Z,941.00
2018-08-19T02:37:48.073Z,941.02
2018-08-19T02:38:47.930Z,941.02
2018-08-19T02:39:47.921Z,941.05
2018-08-19T02:40:47.963Z,941.07
2018-08-19T02:41:47.971Z,941.06
2018-08-19T02:42:48.130Z,941.07
2018-08-19T02:43:47.999Z,941.05
2018-08-19T02:44:48.002Z,941.02
2018-08-19T02:45:48.018Z,940.98
2018-08-19T02:46:48.035Z,940.98
2018-08-19T02:47:48.192Z,940.98
2018-08-19T02:48:48.052Z,940.94
2018-08-19T02:49:48.069Z,940.97
2018-08-19T02:50:48.060Z,940.93
2018-08-19T02:51:48.090Z,940.91
2018-08-19T02:52:48.204Z,940.92
2018-08-19T02:53:48.120Z,940.88
2018-08-19T02:54:48.130Z,940.91
2018-08-19T02:55:48.140Z,940.88
2018-08-19T02:56:48.154Z,940.88
2018-08-19T02:57:48.319Z,940.90
2018-08-19T02:58:48.179Z,940.86
2018-08-19T02:59:48.185Z,940.84
2018-08-19T03:00:48.204Z,940.84
2018-08-19T03:01:48.198Z,940.83
2018-08-19T03:02:48.372Z,940.80
2018-08-19T03:03:48.243Z,940.78
2018-08-19T03:04:48.252Z,940.76
2018-08-19T03:05:48.260Z,940.74
2018-08-19T03:06:48.274Z,940.77
2018-08-19T03:07:48.433Z,940.75
2018-08-19T03:08:48.295Z,940.74
2018-08-19T03:09:48.309Z,940.71
2018-08-19T03:10:48.322Z,940.72
2018-08-19T03:11:48.333Z,940.73
2018-08-19T03:12:48.347Z,940.71
2018-08-19T03:13:48.485Z,940.71
2018-08-19T03:14:48.351Z,940.70
2018-08-19T03:15:48.385Z,940.70
2018-08-19T03:16:48.395Z,940.70
2018-08-19T03:17:48.385Z,940.68
2018-08-19T03:18:48.570Z,940.67
2018-08-19T03:19:48.429Z,940.68
2018-08-19T03:20:48.439Z,940.67
2018-08-19T03:21:48.457Z,940.67
2018-08-19T03:22:48.471Z,940.66
2018-08-19T03:23:48.577Z,940.66
2018-08-19T03:24:48.475Z,940.68
2018-08-19T03:25:48.507Z,940.65
2018-08-19T03:26:48.514Z,940.64
2018-08-19T03:27:48.529Z,940.63
2018-08-19T03:28:48.688Z,940.64
2018-08-19T03:29:48.551Z,940.62
2018-08-19T03:30:48.560Z,940.60
2018-08-19T03:31:48.582Z,940.65
2018-08-19T03:32:48.568Z,940.62
2018-08-19T03:33:48.698Z,940.63
2018-08-19T03:34:48.613Z,940.60
2018-08-19T03:35:48.622Z,940.54
2018-08-19T03:36:48.636Z,940.56
2018-08-19T03:37:48.700Z,940.56
2018-08-19T03:38:48.807Z,940.58
2018-08-19T03:39:48.655Z,940.57
2018-08-19T03:40:48.683Z,940.59
2018-08-19T03:41:48.696Z,940.55
2018-08-19T03:42:48.687Z,940.55
2018-08-19T03:43:48.868Z,940.53
2018-08-19T03:44:48.728Z,940.53
2018-08-19T03:45:48.742Z,940.52
2018-08-19T03:46:48.758Z,940.50
2018-08-19T03:47:48.750Z,940.50
2018-08-19T03:48:48.878Z,940.55
2018-08-19T03:49:48.788Z,940.49
2018-08-19T03:50:48.801Z,940.49
2018-08-19T03:51:48.808Z,940.50
2018-08-19T03:52:48.823Z,940.51
2018-08-19T03:53:49.092Z,940.50
2018-08-19T03:54:48.853Z,940.47
2018-08-19T03:55:48.858Z,940.50
2018-08-19T03:56:48.875Z,940.48
2018-08-19T03:57:48.892Z,940.47
2018-08-19T03:58:49.064Z,940.47
2018-08-19T03:59:48.892Z,940.42
2018-08-19T04:00:48.920Z,940.43
2018-08-19T04:01:48.940Z,940.43
2018-08-19T04:02:48.948Z,940.40
2018-08-19T04:03:49.115Z,940.40
2018-08-19T04:04:48.970Z,940.40
2018-08-19T04:05:48.980Z,940.44
2018-08-19T04:06:48.991Z,940.42
2018-08-19T04:07:49.005Z,940.41
2018-08-19T04:08:49.119Z,940.39
2018-08-19T04:09:49.028Z,940.44
2018-08-19T04:10:49.040Z,940.42
2018-08-19T04:11:49.032Z,940.39
2018-08-19T04:12:49.062Z,940.40
2018-08-19T04:13:49.234Z,940.39
2018-08-19T04:14:49.088Z,940.40
2018-08-19T04:15:49.100Z,940.39
2018-08-19T04:16:49.113Z,940.35
2018-08-19T04:17:49.122Z,940.36
2018-08-19T04:18:49.269Z,940.35
2018-08-19T04:19:49.147Z,940.34
2018-08-19T04:20:49.163Z,940.32
2018-08-19T04:21:49.172Z,940.29
2018-08-19T04:22:49.179Z,940.28
2018-08-19T04:23:49.297Z,940.24
2018-08-19T04:24:49.215Z,940.23
2018-08-19T04:25:49.217Z,940.22
2018-08-19T04:26:49.233Z,940.18
2018-08-19T04:27:49.246Z,940.18
2018-08-19T04:28:49.387Z,940.14
2018-08-19T04:29:49.250Z,940.17
2018-08-19T04:30:49.274Z,940.18
2018-08-19T04:31:49.271Z,940.18
2018-08-19T04:32:49.306Z,940.20
2018-08-19T04:33:49.315Z,940.15
2018-08-19T04:34:49.477Z,940.20
2018-08-19T04:35:49.340Z,940.18
2018-08-19T04:36:49.348Z,940.13
2018-08-19T04:37:49.368Z,940.11
2018-08-19T04:38:49.380Z,940.11
2018-08-19T04:39:49.423Z,940.09
2018-08-19T04:40:49.559Z,940.11
2018-08-19T04:41:49.414Z,940.10
2018-08-19T04:42:49.419Z,940.12
2018-08-19T04:43:49.443Z,940.09
2018-08-19T04:44:49.431Z,940.09
2018-08-19T04:45:49.611Z,940.07
2018-08-19T04:46:49.479Z,940.07
2018-08-19T04:47:49.492Z,940.04
2018-08-19T04:48:49.493Z,940.02
2018-08-19T04:49:49.507Z,940.05
2018-08-19T04:50:49.777Z,940.03
2018-08-19T04:51:49.514Z,940.08
2018-08-19T04:52:49.547Z,940.08
2018-08-19T04:53:49.558Z,940.08
2018-08-19T04:54:49.574Z,940.05
2018-08-19T04:55:49.717Z,940.02
2018-08-19T04:56:49.594Z,940.04
2018-08-19T04:57:49.586Z,940.01
2018-08-19T04:58:49.615Z,940.04
2018-08-19T04:59:49.635Z,940.03
2018-08-19T05:00:49.785Z,940.04
2018-08-19T05:01:49.652Z,940.02
2018-08-19T05:02:49.670Z,940.03
2018-08-19T05:03:49.673Z,940.03
2018-08-19T05:04:49.686Z,940.03
2018-08-19T05:05:49.848Z,940.01
2018-08-19T05:06:49.695Z,939.98
2018-08-19T05:07:49.756Z,940.01
2018-08-19T05:08:49.740Z,940.00
2018-08-19T05:09:49.729Z,939.99
2018-08-19T05:10:49.913Z,939.97
2018-08-19T05:11:49.774Z,939.96
2018-08-19T05:12:49.792Z,939.93
2018-08-19T05:13:49.791Z,939.91
2018-08-19T05:14:49.812Z,939.87
2018-08-19T05:15:49.973Z,939.85
2018-08-19T05:16:49.825Z,939.90
2018-08-19T05:17:49.841Z,939.91
2018-08-19T05:18:49.857Z,939.92
2018-08-19T05:19:49.872Z,939.90
2018-08-19T05:20:50.030Z,939.89
2018-08-19T05:21:49.891Z,939.87
2018-08-19T05:22:49.879Z,939.89
2018-08-19T05:23:49.911Z,939.86
2018-08-19T05:24:49.926Z,939.86
2018-08-19T05:25:50.087Z,939.84
2018-08-19T05:26:49.957Z,939.85
2018-08-19T05:27:49.951Z,939.81
2018-08-19T05:28:49.971Z,939.80
2018-08-19T05:29:49.981Z,939.81
2018-08-19T05:30:50.146Z,939.79
2018-08-19T05:31:50.013Z,939.80
2018-08-19T05:32:50.017Z,939.75
2018-08-19T05:33:50.033Z,939.77
2018-08-19T05:34:50.045Z,939.74
2018-08-19T05:35:50.187Z,939.74
2018-08-19T05:36:50.082Z,939.75
2018-08-19T05:37:50.080Z,939.79
2018-08-19T05:38:50.092Z,939.77
2018-08-19T05:39:50.108Z,939.72
2018-08-19T05:40:50.267Z,939.72
2018-08-19T05:41:50.132Z,939.76
2018-08-19T05:42:50.145Z,939.71
2018-08-19T05:43:50.153Z,939.73
2018-08-19T05:44:50.164Z,939.71
2018-08-19T05:45:50.325Z,939.74
2018-08-19T05:46:50.183Z,939.70
2018-08-19T05:47:50.194Z,939.74
2018-08-19T05:48:50.208Z,939.73
2018-08-19T05:49:50.222Z,939.73
2018-08-19T05:50:50.396Z,939.73
2018-08-19T05:51:50.247Z,939.74
2018-08-19T05:52:50.259Z,939.72
2018-08-19T05:53:50.270Z,939.73
2018-08-19T05:54:50.285Z,939.73
2018-08-19T05:55:50.295Z,939.73
2018-08-19T05:56:50.458Z,939.77
2018-08-19T05:57:50.313Z,939.76
2018-08-19T05:58:50.329Z,939.77
2018-08-19T05:59:50.338Z,939.74
2018-08-19T06:00:50.349Z,939.74
2018-08-19T06:01:50.366Z,939.73
2018-08-19T06:02:50.537Z,939.72
2018-08-19T06:03:50.394Z,939.71
2018-08-19T06:04:50.396Z,939.72
2018-08-19T06:05:50.392Z,939.74
2018-08-19T06:06:50.427Z,939.72
2018-08-19T06:07:50.591Z,939.71
2018-08-19T06:08:50.448Z,939.79
2018-08-19T06:09:50.443Z,939.79
2018-08-19T06:10:50.483Z,939.75
2018-08-19T06:11:50.488Z,939.71
2018-08-19T06:12:50.647Z,939.71
2018-08-19T06:13:50.506Z,939.72
2018-08-19T06:14:50.521Z,939.70
2018-08-19T06:15:50.570Z,939.70
2018-08-19T06:16:50.544Z,939.72
2018-08-19T06:17:50.710Z,939.75
2018-08-19T06:18:50.549Z,939.75
2018-08-19T06:19:50.577Z,939.73
2018-08-19T06:20:50.571Z,939.74
2018-08-19T06:21:50.659Z,939.73
2018-08-19T06:22:50.764Z,939.74
2018-08-19T06:23:50.632Z,939.77
2018-08-19T06:24:50.632Z,939.79
2018-08-19T06:25:50.650Z,939.80
2018-08-19T06:26:50.662Z,939.73
2018-08-19T06:27:50.829Z,939.77
2018-08-19T06:28:50.682Z,939.73
2018-08-19T06:29:50.677Z,939.75
2018-08-19T06:30:50.706Z,939.70
2018-08-19T06:31:50.723Z,939.76
2018-08-19T06:32:50.862Z,939.76
2018-08-19T06:33:50.742Z,939.73
2018-08-19T06:34:50.919Z,939.74
2018-08-19T06:35:50.774Z,939.68
2018-08-19T06:36:50.780Z,939.70
2018-08-19T06:37:51.033Z,939.72
2018-08-19T06:38:50.802Z,939.66
2018-08-19T06:39:50.809Z,939.65
2018-08-19T06:40:50.827Z,939.72
2018-08-19T06:41:50.833Z,939.66
2018-08-19T06:42:50.994Z,939.64
2018-08-19T06:43:50.838Z,939.63
2018-08-19T06:44:50.854Z,939.62
2018-08-19T06:45:50.877Z,939.64
2018-08-19T06:46:50.892Z,939.68
2018-08-19T06:47:51.052Z,939.63
2018-08-19T06:48:50.910Z,939.63
2018-08-19T06:49:50.926Z,939.59
2018-08-19T06:50:50.944Z,939.64
2018-08-19T06:51:50.951Z,939.59
2018-08-19T06:52:51.096Z,939.57
2018-08-19T06:53:50.976Z,939.58
2018-08-19T06:54:50.983Z,939.58
2018-08-19T06:55:50.997Z,939.58
2018-08-19T06:56:51.008Z,939.58
2018-08-19T06:57:51.167Z,939.60
2018-08-19T06:58:51.030Z,939.60
2018-08-19T06:59:51.042Z,939.59
2018-08-19T07:00:51.049Z,939.57
2018-08-19T07:01:51.066Z,939.57
2018-08-19T07:02:51.229Z,939.56
2018-08-19T07:03:51.261Z,939.57
2018-08-19T07:04:51.101Z,939.62
2018-08-19T07:05:51.119Z,939.55
2018-08-19T07:06:51.122Z,939.58
2018-08-19T07:07:51.279Z,939.61
2018-08-19T07:08:51.120Z,939.57
2018-08-19T07:09:51.152Z,939.63
2018-08-19T07:10:51.147Z,939.58
2018-08-19T07:11:51.180Z,939.56
2018-08-19T07:12:51.346Z,939.57
2018-08-19T07:13:51.182Z,939.58
2018-08-19T07:14:51.221Z,939.60
2018-08-19T07:15:51.230Z,939.61
2018-08-19T07:16:51.237Z,939.64
2018-08-19T07:17:51.245Z,939.63
2018-08-19T07:18:51.409Z,939.60
2018-08-19T07:19:51.273Z,939.61
2018-08-19T07:20:51.280Z,939.62
2018-08-19T07:21:51.290Z,939.58
2018-08-19T07:22:51.307Z,939.65
2018-08-19T07:23:51.422Z,939.62
2018-08-19T07:24:51.459Z,939.56
2018-08-19T07:25:51.340Z,939.59
2018-08-19T07:26:51.360Z,939.57
2018-08-19T07:27:51.347Z,939.56
2018-08-19T07:28:51.378Z,939.55
2018-08-19T07:29:51.656Z,939.56
2018-08-19T07:30:51.409Z,939.60
2018-08-19T07:31:51.416Z,939.56
2018-08-19T07:32:51.422Z,939.56
2018-08-19T07:33:51.432Z,939.56
2018-08-19T07:34:51.599Z,939.60
2018-08-19T07:35:51.455Z,939.63
2018-08-19T07:36:51.515Z,939.62
2018-08-19T07:37:51.459Z,939.66
2018-08-19T07:38:51.472Z,939.64
2018-08-19T07:39:51.657Z,939.60
2018-08-19T07:40:51.515Z,939.59
2018-08-19T07:41:51.513Z,939.62
2018-08-19T07:42:51.541Z,939.65
2018-08-19T07:43:51.561Z,939.67
2018-08-19T07:44:51.711Z,939.66
2018-08-19T07:45:51.549Z,939.64
2018-08-19T07:46:51.583Z,939.66
2018-08-19T07:47:51.600Z,939.66
2018-08-19T07:48:51.605Z,939.68
2018-08-19T07:49:51.784Z,939.66
2018-08-19T07:50:51.616Z,939.68
2018-08-19T07:51:51.644Z,939.67
2018-08-19T07:52:51.647Z,939.66
2018-08-19T07:53:51.661Z,939.69
2018-08-19T07:54:51.824Z,939.70
2018-08-19T07:55:51.688Z,939.68
2018-08-19T07:56:51.698Z,939.71
2018-08-19T07:57:51.709Z,939.74
2018-08-19T07:58:51.722Z,939.73
2018-08-19T07:59:51.889Z,939.72
2018-08-19T08:00:51.749Z,939.72
2018-08-19T08:01:51.757Z,939.75
2018-08-19T08:02:51.772Z,939.73
2018-08-19T08:03:51.763Z,939.70
2018-08-19T08:04:51.934Z,939.71
2018-08-19T08:05:51.806Z,939.73
2018-08-19T08:06:51.809Z,939.78
2018-08-19T08:07:51.824Z,939.75
2018-08-19T08:08:51.831Z,939.79
2018-08-19T08:09:51.952Z,939.76
2018-08-19T08:10:51.879Z,939.81
2018-08-19T08:11:51.871Z,939.81
2018-08-19T08:12:51.889Z,939.80
2018-08-19T08:13:51.955Z,939.77
2018-08-19T08:14:52.155Z,939.83
2018-08-19T08:15:51.920Z,939.80
2018-08-19T08:16:51.926Z,939.86
2018-08-19T08:17:51.917Z,939.85
2018-08-19T08:18:51.948Z,939.82
2018-08-19T08:19:52.217Z,939.88
2018-08-19T08:20:51.954Z,939.87
2018-08-19T08:21:51.980Z,939.85
2018-08-19T08:22:51.996Z,939.89
2018-08-19T08:23:52.006Z,939.82
2018-08-19T08:24:52.205Z,939.87
2018-08-19T08:25:52.009Z,939.87
2018-08-19T08:26:52.047Z,939.84
2018-08-19T08:27:52.062Z,939.92
2018-08-19T08:28:52.065Z,939.88
2018-08-19T08:29:52.224Z,939.93
2018-08-19T08:30:52.087Z,939.93
2018-08-19T08:31:52.101Z,939.95
2018-08-19T08:32:52.115Z,939.92
2018-08-19T08:33:52.121Z,939.97
2018-08-19T08:34:52.288Z,939.91
2018-08-19T08:35:52.130Z,939.95
2018-08-19T08:36:52.160Z,939.96
2018-08-19T08:37:52.171Z,939.96
2018-08-19T08:38:52.163Z,939.96
2018-08-19T08:39:52.343Z,939.96
2018-08-19T08:40:52.197Z,940.00
2018-08-19T08:41:52.211Z,939.98
2018-08-19T08:42:52.220Z,939.99
2018-08-19T08:43:52.237Z,940.01
2018-08-19T08:44:52.231Z,940.00
2018-08-19T08:45:52.413Z,939.98
2018-08-19T08:46:52.267Z,940.07
2018-08-19T08:47:52.361Z,940.04
2018-08-19T08:48:52.292Z,940.03
2018-08-19T08:49:52.305Z,940.03
2018-08-19T08:50:52.298Z,940.02
2018-08-19T08:51:52.476Z,940.06
2018-08-19T08:52:52.344Z,940.09
2018-08-19T08:53:52.347Z,940.05
2018-08-19T08:54:52.367Z,940.06
2018-08-19T08:55:52.375Z,940.07
2018-08-19T08:56:52.628Z,940.06
2018-08-19T08:57:52.402Z,940.04
2018-08-19T08:58:52.404Z,940.04
2018-08-19T08:59:52.418Z,940.05
2018-08-19T09:00:52.435Z,940.08
2018-08-19T09:01:52.591Z,940.08
2018-08-19T09:02:52.461Z,940.16
2018-08-19T09:03:52.464Z,940.16
2018-08-19T09:04:52.474Z,940.17
2018-08-19T09:05:52.487Z,940.17
2018-08-19T09:06:52.745Z,940.20
2018-08-19T09:07:52.514Z,940.21
2018-08-19T09:08:52.518Z,940.24
2018-08-19T09:09:52.532Z,940.25
2018-08-19T09:10:52.540Z,940.27
2018-08-19T09:11:52.704Z,940.27
2018-08-19T09:12:52.564Z,940.27
2018-08-19T09:13:52.598Z,940.27
2018-08-19T09:14:52.582Z,940.30
2018-08-19T09:15:52.613Z,940.32
2018-08-19T09:16:52.860Z,940.31
2018-08-19T09:17:52.619Z,940.35
2018-08-19T09:18:52.640Z,940.37
2018-08-19T09:19:52.668Z,940.41
2018-08-19T09:20:52.654Z,940.37
2018-08-19T09:21:52.821Z,940.38
2018-08-19T09:22:52.701Z,940.39
2018-08-19T09:23:52.692Z,940.41
2018-08-19T09:24:52.680Z,940.43
2018-08-19T09:25:52.691Z,940.45
2018-08-19T09:26:52.982Z,940.45
2018-08-19T09:27:52.740Z,940.43
2018-08-19T09:28:52.752Z,940.45
2018-08-19T09:29:52.755Z,940.42
2018-08-19T09:30:52.766Z,940.43
2018-08-19T09:31:52.931Z,940.49
2018-08-19T09:32:52.824Z,940.43
2018-08-19T09:33:52.799Z,940.45
2018-08-19T09:34:52.810Z,940.44
2018-08-19T09:35:52.825Z,940.49
2018-08-19T09:36:53.087Z,940.51
2018-08-19T09:37:52.836Z,940.51
2018-08-19T09:38:52.847Z,940.56
2018-08-19T09:39:52.871Z,940.54
2018-08-19T09:40:53.027Z,940.60
2018-08-19T09:41:53.002Z,940.58
2018-08-19T09:42:52.911Z,940.62
2018-08-19T09:43:52.926Z,940.62
2018-08-19T09:44:52.932Z,940.62
2018-08-19T09:45:52.932Z,940.63
2018-08-19T09:46:53.082Z,940.67
2018-08-19T09:47:53.132Z,940.70
2018-08-19T09:48:52.974Z,940.68
2018-08-19T09:49:52.984Z,940.69
2018-08-19T09:50:52.990Z,940.71
2018-08-19T09:51:53.160Z,940.73
2018-08-19T09:52:53.001Z,940.75
2018-08-19T09:53:53.035Z,940.79
2018-08-19T09:54:53.039Z,940.79
2018-08-19T09:55:53.057Z,940.80
2018-08-19T09:56:53.211Z,940.83
2018-08-19T09:57:53.076Z,940.84
2018-08-19T09:58:53.068Z,940.91
2018-08-19T09:59:53.081Z,940.89
2018-08-19T10:00:53.117Z,940.92
2018-08-19T10:01:53.228Z,940.88
2018-08-19T10:02:53.139Z,940.92
2018-08-19T10:03:53.154Z,940.86
2018-08-19T10:04:53.157Z,940.90
2018-08-19T10:05:53.172Z,940.94
2018-08-19T10:06:53.315Z,940.91
2018-08-19T10:07:53.280Z,940.91
2018-08-19T10:08:53.205Z,940.90
2018-08-19T10:09:53.214Z,940.95
2018-08-19T10:10:53.224Z,940.92
2018-08-19T10:11:53.216Z,940.93
2018-08-19T10:12:53.397Z,940.96
2018-08-19T10:13:53.263Z,940.94
2018-08-19T10:14:53.272Z,940.98
2018-08-19T10:15:53.280Z,940.99
2018-08-19T10:16:53.297Z,941.00
2018-08-19T10:17:53.397Z,941.01
2018-08-19T10:18:53.583Z,941.04
2018-08-19T10:19:53.324Z,941.06
2018-08-19T10:20:53.342Z,941.13
2018-08-19T10:21:53.352Z,941.10
2018-08-19T10:22:53.362Z,941.17
2018-08-19T10:23:53.507Z,941.17
2018-08-19T10:24:53.387Z,941.17
2018-08-19T10:25:53.394Z,941.17
2018-08-19T10:26:53.391Z,941.22
2018-08-19T10:27:53.427Z,941.27
2018-08-19T10:28:53.558Z,941.24
2018-08-19T10:29:53.422Z,941.29
2018-08-19T10:30:53.452Z,941.24
2018-08-19T10:31:53.463Z,941.29
2018-08-19T10:32:53.474Z,941.26
2018-08-19T10:33:53.742Z,941.24
2018-08-19T10:34:53.501Z,941.28
2018-08-19T10:35:53.515Z,941.32
2018-08-19T10:36:53.520Z,941.29
2018-08-19T10:37:53.535Z,941.28
2018-08-19T10:38:53.699Z,941.27
2018-08-19T10:39:53.551Z,941.29
2018-08-19T10:40:53.570Z,941.30
2018-08-19T10:41:53.579Z,941.32
2018-08-19T10:42:53.597Z,941.35
2018-08-19T10:43:53.734Z,941.39
2018-08-19T10:44:53.613Z,941.40
2018-08-19T10:45:53.629Z,941.43
2018-08-19T10:46:53.637Z,941.41
2018-08-19T10:47:53.648Z,941.41
2018-08-19T10:48:53.808Z,941.42
2018-08-19T10:49:53.670Z,941.41
2018-08-19T10:50:53.681Z,941.37
2018-08-19T10:51:53.698Z,941.40
2018-08-19T10:52:53.702Z,941.41
2018-08-19T10:53:53.873Z,941.44
2018-08-19T10:54:53.714Z,941.43
2018-08-19T10:55:53.745Z,941.46
2018-08-19T10:56:53.757Z,941.49
2018-08-19T10:57:53.774Z,941.53
2018-08-19T10:58:53.934Z,941.47
2018-08-19T10:59:53.846Z,941.47
2018-08-19T11:00:53.801Z,941.49
2018-08-19T11:01:53.814Z,941.47
2018-08-19T11:02:53.832Z,941.50
2018-08-19T11:03:53.991Z,941.52
2018-08-19T11:04:53.844Z,941.54
2018-08-19T11:05:53.862Z,941.52
2018-08-19T11:06:53.873Z,941.56
2018-08-19T11:07:53.891Z,941.54
2018-08-19T11:08:54.057Z,941.59
2018-08-19T11:09:53.909Z,941.63
2018-08-19T11:10:53.922Z,941.59
2018-08-19T11:11:53.935Z,941.61
2018-08-19T11:12:53.948Z,941.58
2018-08-19T11:13:54.090Z,941.64
2018-08-19T11:14:53.971Z,941.61
2018-08-19T11:15:53.988Z,941.61
2018-08-19T11:16:53.999Z,941.59
2018-08-19T11:17:54.008Z,941.66
2018-08-19T11:18:54.173Z,941.63
2018-08-19T11:19:54.036Z,941.63
2018-08-19T11:20:54.062Z,941.68
2018-08-19T11:21:54.057Z,941.65
2018-08-19T11:22:54.069Z,941.68
2018-08-19T11:23:54.232Z,941.69
2018-08-19T11:24:54.078Z,941.68
2018-08-19T11:25:54.116Z,941.72
2018-08-19T11:26:54.119Z,941.70
2018-08-19T11:27:54.140Z,941.69
2018-08-19T11:28:54.278Z,941.69
2018-08-19T11:29:54.157Z,941.72
2018-08-19T11:30:54.174Z,941.68
2018-08-19T11:31:54.181Z,941.67
2018-08-19T11:32:54.196Z,941.65
2018-08-19T11:33:54.272Z,941.71
2018-08-19T11:34:54.375Z,941.72
2018-08-19T11:35:54.236Z,941.68
2018-08-19T11:36:54.248Z,941.74
2018-08-19T11:37:54.261Z,941.72
2018-08-19T11:38:54.265Z,941.77
2018-08-19T11:39:54.288Z,941.81
2018-08-19T11:40:54.452Z,941.85
2018-08-19T11:41:54.325Z,941.84
2018-08-19T11:42:54.325Z,941.88
2018-08-19T11:43:54.339Z,941.85
2018-08-19T11:44:54.356Z,941.88
2018-08-19T11:45:54.520Z,941.93
2018-08-19T11:46:54.384Z,941.92
2018-08-19T11:47:54.397Z,941.93
2018-08-19T11:48:54.488Z,941.97
2018-08-19T11:49:54.429Z,941.99
2018-08-19T11:50:54.687Z,941.95
2018-08-19T11:51:54.453Z,941.97
2018-08-19T11:52:54.464Z,942.00
2018-08-19T11:53:54.476Z,942.00
2018-08-19T11:54:54.500Z,942.02
2018-08-19T11:55:54.608Z,942.01
2018-08-19T11:56:54.520Z,941.99
2018-08-19T11:57:54.515Z,942.02
2018-08-19T11:58:54.531Z,942.10
2018-08-19T11:59:54.558Z,942.11
2018-08-19T12:00:54.860Z,942.10
2018-08-19T12:01:54.627Z,942.10
2018-08-19T12:02:54.602Z,942.07
2018-08-19T12:03:54.617Z,942.06
2018-08-19T12:04:54.623Z,942.06
2018-08-19T12:05:54.790Z,942.08
2018-08-19T12:06:54.651Z,942.12
2018-08-19T12:07:54.678Z,942.07
2018-08-19T12:08:54.684Z,942.10
2018-08-19T12:09:54.702Z,942.12
2018-08-19T12:10:54.867Z,942.11
2018-08-19T12:11:54.731Z,942.08
2018-08-19T12:12:54.752Z,942.14
2018-08-19T12:13:54.735Z,942.10
2018-08-19T12:14:54.772Z,942.14
2018-08-19T12:15:54.917Z,942.10
2018-08-19T12:16:54.811Z,942.10
2018-08-19T12:17:54.818Z,942.12
2018-08-19T12:18:54.824Z,942.13
2018-08-19T12:19:54.846Z,942.15
2018-08-19T12:20:55.008Z,942.16
2018-08-19T12:21:54.872Z,942.14
2018-08-19T12:22:54.887Z,942.18
2018-08-19T12:23:54.913Z,942.22
2018-08-19T12:24:54.916Z,942.16
2018-08-19T12:25:55.064Z,942.12
2018-08-19T12:26:54.954Z,942.13
2018-08-19T12:27:54.996Z,942.14
2018-08-19T12:28:54.982Z,942.12